sensor_id;sensor_type;location;lat;lon;timestamp;pressure;altitude;pressure_sealevel;temperature;humidity
6345;BME280;3205;42.666;23.264;2023-01-27T00:01:39;93494.66;;;1.88;nan
6345;BME280;3205;42.666;23.264;2023-01-27T00:04:05;93499.88;;;1.88;nan
6345;BME280;3205;42.666;23.264;2023-01-27T00:06:31;93509.38;;;1.92;nan
6345;BME280;3205;42.666;23.264;2023-01-27T00:08:57;93504.19;;;1.92;nan
6345;BME280;3205;42.666;23.264;2023-01-27T00:11:24;93492.84;;;1.97;nan
6345;BME280;3205;42.666;23.264;2023-01-27T00:14:08;93494.69;;;1.96;nan
6345;BME280;3205;42.666;23.264;2023-01-27T00:16:34;93493.16;;;1.95;nan
6345;BME280;3205;42.666;23.264;2023-01-27T00:19:01;93490.09;;;1.93;nan
6345;BME280;3205;42.666;23.264;2023-01-27T00:21:27;93480.72;;;1.92;nan
6345;BME280;3205;42.666;23.264;2023-01-27T00:24:12;93481.50;;;1.93;nan
6345;BME280;3205;42.666;23.264;2023-01-27T00:26:57;93469.84;;;1.90;nan
6345;BME280;3205;42.666;23.264;2023-01-27T00:29:23;93471.03;;;1.84;nan
6345;BME280;3205;42.666;23.264;2023-01-27T00:31:49;93467.81;;;1.87;nan
6345;BME280;3205;42.666;23.264;2023-01-27T00:34:33;93472.59;;;1.94;nan
6345;BME280;3205;42.666;23.264;2023-01-27T00:37:00;93476.63;;;2.00;nan
6345;BME280;3205;42.666;23.264;2023-01-27T00:39:26;93476.44;;;1.96;nan
6345;BME280;3205;42.666;23.264;2023-01-27T00:41:53;93469.09;;;1.90;nan
6345;BME280;3205;42.666;23.264;2023-01-27T00:44:20;93458.50;;;1.95;nan
6345;BME280;3205;42.666;23.264;2023-01-27T00:46:48;93469.25;;;1.93;nan
6345;BME280;3205;42.666;23.264;2023-01-27T00:49:14;93479.06;;;1.96;nan
6345;BME280;3205;42.666;23.264;2023-01-27T00:51:41;93475.63;;;1.87;nan
6345;BME280;3205;42.666;23.264;2023-01-27T00:54:07;93479.34;;;1.95;nan
6345;BME280;3205;42.666;23.264;2023-01-27T00:56:34;93479.63;;;1.85;nan
6345;BME280;3205;42.666;23.264;2023-01-27T00:59:00;93476.56;;;1.83;nan
6345;BME280;3205;42.666;23.264;2023-01-27T01:01:27;93472.59;;;1.85;nan
6345;BME280;3205;42.666;23.264;2023-01-27T01:03:53;93470.09;;;1.80;nan
6345;BME280;3205;42.666;23.264;2023-01-27T01:06:20;93477.47;;;1.87;nan
6345;BME280;3205;42.666;23.264;2023-01-27T01:08:46;93478.31;;;1.65;nan
6345;BME280;3205;42.666;23.264;2023-01-27T01:11:15;93479.28;;;1.78;nan
6345;BME280;3205;42.666;23.264;2023-01-27T01:13:42;93467.75;;;1.70;nan
6345;BME280;3205;42.666;23.264;2023-01-27T01:16:10;93478.34;;;1.74;nan
6345;BME280;3205;42.666;23.264;2023-01-27T01:18:38;93482.31;;;1.71;nan
6345;BME280;3205;42.666;23.264;2023-01-27T01:21:04;93480.16;;;1.73;nan
6345;BME280;3205;42.666;23.264;2023-01-27T01:23:31;93486.34;;;1.77;nan
6345;BME280;3205;42.666;23.264;2023-01-27T01:25:58;93483.28;;;1.84;nan
6345;BME280;3205;42.666;23.264;2023-01-27T01:28:24;93473.03;;;1.87;nan
6345;BME280;3205;42.666;23.264;2023-01-27T01:30:50;93474.13;;;1.86;nan
6345;BME280;3205;42.666;23.264;2023-01-27T01:33:17;93482.72;;;1.95;nan
6345;BME280;3205;42.666;23.264;2023-01-27T01:35:44;93481.81;;;2.00;nan
6345;BME280;3205;42.666;23.264;2023-01-27T01:38:10;93482.56;;;1.92;nan
6345;BME280;3205;42.666;23.264;2023-01-27T01:40:39;93490.28;;;2.05;nan
6345;BME280;3205;42.666;23.264;2023-01-27T01:43:11;93493.06;;;2.09;nan
6345;BME280;3205;42.666;23.264;2023-01-27T01:45:50;93490.88;;;2.02;nan
6345;BME280;3205;42.666;23.264;2023-01-27T01:48:23;93490.88;;;2.02;nan
6345;BME280;3205;42.666;23.264;2023-01-27T01:50:54;93488.41;;;1.97;nan
6345;BME280;3205;42.666;23.264;2023-01-27T01:53:23;93483.50;;;1.96;nan
6345;BME280;3205;42.666;23.264;2023-01-27T01:55:54;93476.91;;;1.98;nan
6345;BME280;3205;42.666;23.264;2023-01-27T01:58:20;93478.00;;;1.97;nan
6345;BME280;3205;42.666;23.264;2023-01-27T02:00:46;93473.97;;;1.91;nan
6345;BME280;3205;42.666;23.264;2023-01-27T02:03:13;93458.03;;;1.93;nan
6345;BME280;3205;42.666;23.264;2023-01-27T02:05:41;93445.94;;;1.97;nan
6345;BME280;3205;42.666;23.264;2023-01-27T02:08:12;93442.16;;;2.03;nan
6345;BME280;3205;42.666;23.264;2023-01-27T02:10:40;93448.09;;;1.95;nan
6345;BME280;3205;42.666;23.264;2023-01-27T02:13:06;93454.84;;;1.96;nan
6345;BME280;3205;42.666;23.264;2023-01-27T02:15:33;93435.38;;;1.93;nan
6345;BME280;3205;42.666;23.264;2023-01-27T02:18:00;93426.78;;;2.01;nan
6345;BME280;3205;42.666;23.264;2023-01-27T02:20:32;93426.69;;;2.06;nan
6345;BME280;3205;42.666;23.264;2023-01-27T02:23:05;93414.09;;;2.08;nan
6345;BME280;3205;42.666;23.264;2023-01-27T02:25:46;93412.59;;;2.16;nan
6345;BME280;3205;42.666;23.264;2023-01-27T02:28:12;93412.56;;;2.07;nan
6345;BME280;3205;42.666;23.264;2023-01-27T02:30:38;93410.72;;;2.08;nan
6345;BME280;3205;42.666;23.264;2023-01-27T02:33:09;93415.03;;;2.12;nan
6345;BME280;3205;42.666;23.264;2023-01-27T02:35:38;93418.41;;;2.13;nan
6345;BME280;3205;42.666;23.264;2023-01-27T02:38:06;93414.41;;;2.07;nan
6345;BME280;3205;42.666;23.264;2023-01-27T02:40:35;93411.06;;;2.15;nan
6345;BME280;3205;42.666;23.264;2023-01-27T02:43:03;93407.81;;;2.09;nan
6345;BME280;3205;42.666;23.264;2023-01-27T02:45:29;93406.09;;;2.05;nan
6345;BME280;3205;42.666;23.264;2023-01-27T02:47:56;93414.88;;;2.09;nan
6345;BME280;3205;42.666;23.264;2023-01-27T02:50:22;93416.09;;;2.11;nan
6345;BME280;3205;42.666;23.264;2023-01-27T02:52:48;93427.00;;;2.13;nan
6345;BME280;3205;42.666;23.264;2023-01-27T02:55:14;93431.44;;;2.13;nan
6345;BME280;3205;42.666;23.264;2023-01-27T02:57:40;93431.56;;;2.08;nan
6345;BME280;3205;42.666;23.264;2023-01-27T03:00:10;93420.56;;;2.19;nan
6345;BME280;3205;42.666;23.264;2023-01-27T03:02:37;93420.22;;;2.04;nan
6345;BME280;3205;42.666;23.264;2023-01-27T03:05:04;93422.53;;;2.05;nan
6345;BME280;3205;42.666;23.264;2023-01-27T03:07:30;93419.63;;;2.07;nan
6345;BME280;3205;42.666;23.264;2023-01-27T03:09:56;93405.94;;;2.01;nan
6345;BME280;3205;42.666;23.264;2023-01-27T03:12:22;93411.63;;;2.03;nan
6345;BME280;3205;42.666;23.264;2023-01-27T03:14:50;93414.41;;;2.07;nan
6345;BME280;3205;42.666;23.264;2023-01-27T03:17:36;93404.78;;;2.16;nan
6345;BME280;3205;42.666;23.264;2023-01-27T03:20:22;93397.22;;;2.06;nan
6345;BME280;3205;42.666;23.264;2023-01-27T03:22:48;93392.78;;;2.06;nan
6345;BME280;3205;42.666;23.264;2023-01-27T03:25:15;93387.72;;;2.01;nan
6345;BME280;3205;42.666;23.264;2023-01-27T03:27:41;93379.44;;;1.99;nan
6345;BME280;3205;42.666;23.264;2023-01-27T03:30:08;93386.97;;;2.09;nan
6345;BME280;3205;42.666;23.264;2023-01-27T03:32:36;93385.44;;;2.08;nan
6345;BME280;3205;42.666;23.264;2023-01-27T03:35:02;93382.06;;;2.08;nan
6345;BME280;3205;42.666;23.264;2023-01-27T03:37:30;93386.38;;;2.12;nan
6345;BME280;3205;42.666;23.264;2023-01-27T03:40:15;93371.50;;;2.13;nan
6345;BME280;3205;42.666;23.264;2023-01-27T03:43:00;93367.81;;;2.14;nan
6345;BME280;3205;42.666;23.264;2023-01-27T03:45:47;93361.38;;;2.19;nan
6345;BME280;3205;42.666;23.264;2023-01-27T03:48:33;93349.41;;;2.18;nan
6345;BME280;3205;42.666;23.264;2023-01-27T03:50:59;93356.31;;;2.15;nan
6345;BME280;3205;42.666;23.264;2023-01-27T03:53:26;93350.78;;;2.08;nan
6345;BME280;3205;42.666;23.264;2023-01-27T03:55:52;93355.53;;;2.06;nan
6345;BME280;3205;42.666;23.264;2023-01-27T03:58:21;93353.25;;;2.13;nan
6345;BME280;3205;42.666;23.264;2023-01-27T04:00:50;93352.50;;;2.20;nan
6345;BME280;3205;42.666;23.264;2023-01-27T04:03:17;93351.41;;;2.13;nan
6345;BME280;3205;42.666;23.264;2023-01-27T04:06:03;93360.00;;;2.22;nan
6345;BME280;3205;42.666;23.264;2023-01-27T04:08:48;93372.22;;;2.05;nan
6345;BME280;3205;42.666;23.264;2023-01-27T04:11:14;93381.75;;;2.09;nan
6345;BME280;3205;42.666;23.264;2023-01-27T04:14:02;93393.88;;;2.14;nan
6345;BME280;3205;42.666;23.264;2023-01-27T04:16:30;93407.34;;;2.07;nan
6345;BME280;3205;42.666;23.264;2023-01-27T04:18:56;93415.16;;;2.07;nan
6345;BME280;3205;42.666;23.264;2023-01-27T04:21:24;93414.25;;;2.12;nan
6345;BME280;3205;42.666;23.264;2023-01-27T04:23:50;93415.13;;;1.99;nan
6345;BME280;3205;42.666;23.264;2023-01-27T04:26:16;93418.69;;;2.03;nan
6345;BME280;3205;42.666;23.264;2023-01-27T04:28:42;93426.06;;;2.09;nan
6345;BME280;3205;42.666;23.264;2023-01-27T04:31:08;93432.34;;;2.08;nan
6345;BME280;3205;42.666;23.264;2023-01-27T04:33:34;93444.78;;;2.11;nan
6345;BME280;3205;42.666;23.264;2023-01-27T04:36:00;93441.38;;;2.11;nan
6345;BME280;3205;42.666;23.264;2023-01-27T04:38:27;93442.19;;;2.19;nan
6345;BME280;3205;42.666;23.264;2023-01-27T04:40:53;93427.44;;;2.15;nan
6345;BME280;3205;42.666;23.264;2023-01-27T04:43:19;93435.72;;;2.17;nan
6345;BME280;3205;42.666;23.264;2023-01-27T04:45:45;93450.78;;;2.20;nan
6345;BME280;3205;42.666;23.264;2023-01-27T04:48:11;93440.81;;;2.22;nan
6345;BME280;3205;42.666;23.264;2023-01-27T04:50:37;93433.59;;;2.19;nan
6345;BME280;3205;42.666;23.264;2023-01-27T04:53:03;93425.47;;;2.12;nan
6345;BME280;3205;42.666;23.264;2023-01-27T04:55:30;93448.50;;;2.27;nan
6345;BME280;3205;42.666;23.264;2023-01-27T04:57:56;93466.88;;;2.22;nan
6345;BME280;3205;42.666;23.264;2023-01-27T05:00:23;93451.88;;;2.27;nan
6345;BME280;3205;42.666;23.264;2023-01-27T05:02:49;93438.22;;;2.30;nan
6345;BME280;3205;42.666;23.264;2023-01-27T05:05:15;93452.78;;;2.31;nan
6345;BME280;3205;42.666;23.264;2023-01-27T05:07:41;93444.69;;;2.33;nan
6345;BME280;3205;42.666;23.264;2023-01-27T05:10:09;93439.00;;;2.39;nan
6345;BME280;3205;42.666;23.264;2023-01-27T05:12:36;93443.91;;;2.41;nan
6345;BME280;3205;42.666;23.264;2023-01-27T05:15:03;93449.13;;;2.41;nan
6345;BME280;3205;42.666;23.264;2023-01-27T05:17:30;93433.94;;;2.43;nan
6345;BME280;3205;42.666;23.264;2023-01-27T05:19:56;93439.63;;;2.36;nan
6345;BME280;3205;42.666;23.264;2023-01-27T05:22:22;93437.78;;;2.37;nan
6345;BME280;3205;42.666;23.264;2023-01-27T05:24:48;93438.41;;;2.34;nan
6345;BME280;3205;42.666;23.264;2023-01-27T05:27:15;93442.84;;;2.42;nan
6345;BME280;3205;42.666;23.264;2023-01-27T05:29:42;93440.22;;;2.42;nan
6345;BME280;3205;42.666;23.264;2023-01-27T05:32:08;93426.88;;;2.35;nan
6345;BME280;3205;42.666;23.264;2023-01-27T05:34:34;93428.72;;;2.34;nan
6345;BME280;3205;42.666;23.264;2023-01-27T05:37:00;93421.06;;;2.38;nan
6345;BME280;3205;42.666;23.264;2023-01-27T05:39:26;93422.28;;;2.40;nan
6345;BME280;3205;42.666;23.264;2023-01-27T05:41:52;93411.38;;;2.38;nan
6345;BME280;3205;42.666;23.264;2023-01-27T05:44:19;93412.16;;;2.39;nan
6345;BME280;3205;42.666;23.264;2023-01-27T05:46:46;93415.69;;;2.43;nan
6345;BME280;3205;42.666;23.264;2023-01-27T05:49:12;93410.78;;;2.41;nan
6345;BME280;3205;42.666;23.264;2023-01-27T05:51:38;93409.41;;;2.52;nan
6345;BME280;3205;42.666;23.264;2023-01-27T05:54:05;93404.03;;;2.49;nan
6345;BME280;3205;42.666;23.264;2023-01-27T05:56:31;93424.13;;;2.40;nan
6345;BME280;3205;42.666;23.264;2023-01-27T05:58:58;93429.50;;;2.43;nan
6345;BME280;3205;42.666;23.264;2023-01-27T06:01:26;93421.69;;;2.52;nan
6345;BME280;3205;42.666;23.264;2023-01-27T07:33:37;93451.75;;;3.42;nan
6345;BME280;3205;42.666;23.264;2023-01-27T07:36:03;93457.88;;;3.46;nan
6345;BME280;3205;42.666;23.264;2023-01-27T07:38:30;93462.47;;;3.49;nan
6345;BME280;3205;42.666;23.264;2023-01-27T07:40:56;93470.28;;;3.58;nan
6345;BME280;3205;42.666;23.264;2023-01-27T07:43:22;93469.34;;;3.54;nan
6345;BME280;3205;42.666;23.264;2023-01-27T07:45:52;93469.97;;;3.59;nan
6345;BME280;3205;42.666;23.264;2023-01-27T07:48:18;93469.97;;;3.59;nan
6345;BME280;3205;42.666;23.264;2023-01-27T07:50:45;93467.34;;;3.67;nan
6345;BME280;3205;42.666;23.264;2023-01-27T07:53:11;93458.75;;;3.67;nan
6345;BME280;3205;42.666;23.264;2023-01-27T07:55:37;93469.00;;;3.72;nan
6345;BME280;3205;42.666;23.264;2023-01-27T07:58:03;93472.84;;;3.83;nan
6345;BME280;3205;42.666;23.264;2023-01-27T08:00:30;93471.25;;;3.90;nan
6345;BME280;3205;42.666;23.264;2023-01-27T08:02:57;93470.94;;;3.92;nan
6345;BME280;3205;42.666;23.264;2023-01-27T08:05:24;93477.28;;;3.82;nan
6345;BME280;3205;42.666;23.264;2023-01-27T08:07:53;93464.97;;;3.91;nan
6345;BME280;3205;42.666;23.264;2023-01-27T08:10:20;93460.16;;;3.93;nan
6345;BME280;3205;42.666;23.264;2023-01-27T08:12:47;93457.97;;;4.12;nan
6345;BME280;3205;42.666;23.264;2023-01-27T08:15:13;93462.91;;;4.34;nan
6345;BME280;3205;42.666;23.264;2023-01-27T08:17:40;93461.84;;;4.35;nan
6345;BME280;3205;42.666;23.264;2023-01-27T08:20:07;93464.03;;;4.25;nan
6345;BME280;3205;42.666;23.264;2023-01-27T08:22:34;93462.16;;;3.96;nan
6345;BME280;3205;42.666;23.264;2023-01-27T08:25:00;93469.72;;;3.89;nan
6345;BME280;3205;42.666;23.264;2023-01-27T08:27:27;93479.75;;;3.79;nan
6345;BME280;3205;42.666;23.264;2023-01-27T08:29:53;93486.75;;;3.41;nan
6345;BME280;3205;42.666;23.264;2023-01-27T08:32:20;93484.00;;;3.12;nan
6345;BME280;3205;42.666;23.264;2023-01-27T08:34:46;93478.50;;;2.97;nan
6345;BME280;3205;42.666;23.264;2023-01-27T08:37:12;93484.78;;;2.96;nan
6345;BME280;3205;42.666;23.264;2023-01-27T08:39:38;93481.88;;;2.89;nan
6345;BME280;3205;42.666;23.264;2023-01-27T08:42:05;93483.56;;;2.93;nan
6345;BME280;3205;42.666;23.264;2023-01-27T08:44:31;93484.00;;;2.87;nan
6345;BME280;3205;42.666;23.264;2023-01-27T08:46:58;93489.69;;;3.06;nan
6345;BME280;3205;42.666;23.264;2023-01-27T08:49:24;93481.25;;;3.17;nan
6345;BME280;3205;42.666;23.264;2023-01-27T08:51:51;93482.63;;;3.15;nan
6345;BME280;3205;42.666;23.264;2023-01-27T08:54:17;93483.72;;;3.05;nan
6345;BME280;3205;42.666;23.264;2023-01-27T08:56:43;93487.38;;;3.13;nan
6345;BME280;3205;42.666;23.264;2023-01-27T08:59:10;93495.22;;;3.30;nan
6345;BME280;3205;42.666;23.264;2023-01-27T09:01:36;93485.06;;;3.37;nan
6345;BME280;3205;42.666;23.264;2023-01-27T09:04:02;93495.34;;;3.42;nan
6345;BME280;3205;42.666;23.264;2023-01-27T09:06:28;93487.38;;;3.38;nan
6345;BME280;3205;42.666;23.264;2023-01-27T09:08:54;93483.53;;;3.36;nan
6345;BME280;3205;42.666;23.264;2023-01-27T09:11:36;93490.94;;;3.17;nan
6345;BME280;3205;42.666;23.264;2023-01-27T09:14:02;93489.38;;;3.16;nan
6345;BME280;3205;42.666;23.264;2023-01-27T09:16:29;93484.75;;;3.38;nan
6345;BME280;3205;42.666;23.264;2023-01-27T09:18:55;93490.44;;;3.49;nan
6345;BME280;3205;42.666;23.264;2023-01-27T09:21:22;93485.81;;;3.54;nan
6345;BME280;3205;42.666;23.264;2023-01-27T09:23:49;93490.44;;;3.49;nan
6345;BME280;3205;42.666;23.264;2023-01-27T09:26:15;93474.13;;;3.60;nan
6345;BME280;3205;42.666;23.264;2023-01-27T09:28:41;93476.69;;;3.77;nan
6345;BME280;3205;42.666;23.264;2023-01-27T09:31:07;93479.28;;;3.85;nan
6345;BME280;3205;42.666;23.264;2023-01-27T09:33:35;93465.91;;;3.87;nan
6345;BME280;3205;42.666;23.264;2023-01-27T09:36:05;93467.06;;;3.98;nan
6345;BME280;3205;42.666;23.264;2023-01-27T09:38:36;93466.66;;;3.96;nan
6345;BME280;3205;42.666;23.264;2023-01-27T09:41:21;93464.34;;;3.86;nan
6345;BME280;3205;42.666;23.264;2023-01-27T09:44:04;93462.53;;;3.86;nan
6345;BME280;3205;42.666;23.264;2023-01-27T09:49:46;93456.09;;;3.75;nan
6345;BME280;3205;42.666;23.264;2023-01-27T09:52:32;93451.16;;;3.82;nan
6345;BME280;3205;42.666;23.264;2023-01-27T09:55:08;93444.06;;;3.91;nan
6345;BME280;3205;42.666;23.264;2023-01-27T09:57:41;93446.81;;;3.95;nan
6345;BME280;3205;42.666;23.264;2023-01-27T10:00:29;93438.97;;;3.95;nan
6345;BME280;3205;42.666;23.264;2023-01-27T10:03:21;93427.88;;;3.98;nan
6345;BME280;3205;42.666;23.264;2023-01-27T10:06:07;93436.81;;;3.88;nan
6345;BME280;3205;42.666;23.264;2023-01-27T10:08:52;93423.84;;;3.71;nan
6345;BME280;3205;42.666;23.264;2023-01-27T10:11:31;93428.84;;;3.85;nan
6345;BME280;3205;42.666;23.264;2023-01-27T10:14:11;93421.50;;;3.78;nan
6345;BME280;3205;42.666;23.264;2023-01-27T10:16:54;93424.31;;;3.65;nan
6345;BME280;3205;42.666;23.264;2023-01-27T10:19:36;93423.84;;;3.63;nan
6345;BME280;3205;42.666;23.264;2023-01-27T10:22:14;93426.75;;;3.78;nan
6345;BME280;3205;42.666;23.264;2023-01-27T10:24:50;93420.88;;;3.81;nan
6345;BME280;3205;42.666;23.264;2023-01-27T10:27:24;93422.25;;;3.79;nan
6345;BME280;3205;42.666;23.264;2023-01-27T10:29:55;93421.66;;;3.82;nan
6345;BME280;3205;42.666;23.264;2023-01-27T10:32:25;93425.94;;;3.86;nan
6345;BME280;3205;42.666;23.264;2023-01-27T10:35:01;93419.78;;;3.82;nan
6345;BME280;3205;42.666;23.264;2023-01-27T10:37:38;93426.50;;;3.92;nan
6345;BME280;3205;42.666;23.264;2023-01-27T10:40:15;93426.88;;;4.11;nan
6345;BME280;3205;42.666;23.264;2023-01-27T10:42:47;93419.78;;;4.20;nan
6345;BME280;3205;42.666;23.264;2023-01-27T10:45:23;93412.13;;;4.15;nan
6345;BME280;3205;42.666;23.264;2023-01-27T10:48:13;93409.81;;;4.13;nan
6345;BME280;3205;42.666;23.264;2023-01-27T10:50:46;93409.97;;;4.08;nan
6345;BME280;3205;42.666;23.264;2023-01-27T10:53:19;93411.38;;;4.06;nan
6345;BME280;3205;42.666;23.264;2023-01-27T10:55:56;93417.53;;;4.01;nan
6345;BME280;3205;42.666;23.264;2023-01-27T10:58:35;93428.50;;;3.95;nan
6345;BME280;3205;42.666;23.264;2023-01-27T11:01:05;93424.59;;;3.72;nan
6345;BME280;3205;42.666;23.264;2023-01-27T11:03:34;93426.56;;;3.83;nan
6345;BME280;3205;42.666;23.264;2023-01-27T11:06:06;93422.69;;;3.89;nan
6345;BME280;3205;42.666;23.264;2023-01-27T11:08:37;93422.63;;;3.98;nan
6345;BME280;3205;42.666;23.264;2023-01-27T11:11:05;93425.13;;;3.94;nan
6345;BME280;3205;42.666;23.264;2023-01-27T11:13:58;93422.97;;;3.96;nan
6345;BME280;3205;42.666;23.264;2023-01-27T11:16:30;93419.59;;;3.96;nan
6345;BME280;3205;42.666;23.264;2023-01-27T11:19:00;93412.19;;;3.98;nan
6345;BME280;3205;42.666;23.264;2023-01-27T11:21:30;93412.69;;;3.91;nan
6345;BME280;3205;42.666;23.264;2023-01-27T11:23:59;93413.59;;;3.95;nan
6345;BME280;3205;42.666;23.264;2023-01-27T11:26:38;93407.88;;;4.02;nan
6345;BME280;3205;42.666;23.264;2023-01-27T11:29:15;93408.50;;;3.99;nan
6345;BME280;3205;42.666;23.264;2023-01-27T11:31:50;93402.09;;;3.88;nan
6345;BME280;3205;42.666;23.264;2023-01-27T11:34:23;93403.78;;;3.92;nan
6345;BME280;3205;42.666;23.264;2023-01-27T11:36:52;93398.53;;;3.92;nan
6345;BME280;3205;42.666;23.264;2023-01-27T11:39:19;93400.69;;;3.90;nan
6345;BME280;3205;42.666;23.264;2023-01-27T11:41:49;93399.25;;;4.01;nan
6345;BME280;3205;42.666;23.264;2023-01-27T11:44:18;93400.31;;;4.00;nan
6345;BME280;3205;42.666;23.264;2023-01-27T11:46:45;93392.00;;;4.07;nan
6345;BME280;3205;42.666;23.264;2023-01-27T11:49:16;93388.66;;;3.98;nan
6345;BME280;3205;42.666;23.264;2023-01-27T11:51:44;93390.56;;;3.89;nan
6345;BME280;3205;42.666;23.264;2023-01-27T11:54:14;93385.94;;;3.86;nan
6345;BME280;3205;42.666;23.264;2023-01-27T11:56:43;93385.91;;;3.94;nan
6345;BME280;3205;42.666;23.264;2023-01-27T11:59:15;93388.38;;;3.99;nan
6345;BME280;3205;42.666;23.264;2023-01-27T12:01:46;93385.81;;;3.82;nan
6345;BME280;3205;42.666;23.264;2023-01-27T12:04:19;93388.97;;;3.96;nan
6345;BME280;3205;42.666;23.264;2023-01-27T12:06:48;93388.50;;;4.03;nan
6345;BME280;3205;42.666;23.264;2023-01-27T12:09:30;93396.50;;;3.98;nan
6345;BME280;3205;42.666;23.264;2023-01-27T12:12:10;93397.16;;;3.95;nan
6345;BME280;3205;42.666;23.264;2023-01-27T12:14:47;93382.69;;;3.97;nan
6345;BME280;3205;42.666;23.264;2023-01-27T12:17:20;93399.66;;;4.12;nan
6345;BME280;3205;42.666;23.264;2023-01-27T12:19:48;93401.00;;;4.18;nan
6345;BME280;3205;42.666;23.264;2023-01-27T12:22:24;93391.88;;;4.32;nan
6345;BME280;3205;42.666;23.264;2023-01-27T12:24:53;93400.31;;;4.58;nan
6345;BME280;3205;42.666;23.264;2023-01-27T12:27:22;93399.78;;;5.05;nan
6345;BME280;3205;42.666;23.264;2023-01-27T12:29:52;93392.97;;;5.36;nan
6345;BME280;3205;42.666;23.264;2023-01-27T12:32:23;93401.88;;;5.56;nan
6345;BME280;3205;42.666;23.264;2023-01-27T12:34:52;93394.47;;;5.58;nan
6345;BME280;3205;42.666;23.264;2023-01-27T12:37:22;93408.75;;;5.48;nan
6345;BME280;3205;42.666;23.264;2023-01-27T12:39:54;93405.09;;;5.73;nan
6345;BME280;3205;42.666;23.264;2023-01-27T12:42:37;93401.41;;;5.86;nan
6345;BME280;3205;42.666;23.264;2023-01-27T12:45:21;93403.28;;;6.09;nan
6345;BME280;3205;42.666;23.264;2023-01-27T12:47:58;93412.34;;;6.12;nan
6345;BME280;3205;42.666;23.264;2023-01-27T12:50:26;93409.41;;;6.01;nan
6345;BME280;3205;42.666;23.264;2023-01-27T12:53:02;93408.31;;;5.90;nan
6345;BME280;3205;42.666;23.264;2023-01-27T12:55:31;93409.63;;;5.96;nan
6345;BME280;3205;42.666;23.264;2023-01-27T12:57:59;93408.88;;;5.96;nan
6345;BME280;3205;42.666;23.264;2023-01-27T13:00:26;93409.72;;;5.88;nan
6345;BME280;3205;42.666;23.264;2023-01-27T13:03:04;93415.63;;;5.97;nan
6345;BME280;3205;42.666;23.264;2023-01-27T13:05:35;93403.59;;;5.84;nan
6345;BME280;3205;42.666;23.264;2023-01-27T13:08:03;93404.03;;;5.86;nan
6345;BME280;3205;42.666;23.264;2023-01-27T13:10:29;93412.88;;;5.82;nan
6345;BME280;3205;42.666;23.264;2023-01-27T13:12:57;93408.66;;;5.57;nan
6345;BME280;3205;42.666;23.264;2023-01-27T13:15:27;93419.94;;;5.25;nan
6345;BME280;3205;42.666;23.264;2023-01-27T13:17:54;93417.91;;;5.10;nan
6345;BME280;3205;42.666;23.264;2023-01-27T13:20:24;93413.63;;;4.85;nan
6345;BME280;3205;42.666;23.264;2023-01-27T13:22:55;93414.34;;;4.53;nan
6345;BME280;3205;42.666;23.264;2023-01-27T13:25:27;93408.38;;;4.24;nan
6345;BME280;3205;42.666;23.264;2023-01-27T13:27:59;93409.81;;;4.13;nan
6345;BME280;3205;42.666;23.264;2023-01-27T13:30:29;93403.06;;;4.12;nan
6345;BME280;3205;42.666;23.264;2023-01-27T13:33:01;93397.50;;;4.14;nan
6345;BME280;3205;42.666;23.264;2023-01-27T13:35:32;93409.69;;;4.10;nan
6345;BME280;3205;42.666;23.264;2023-01-27T13:38:03;93406.06;;;3.94;nan
6345;BME280;3205;42.666;23.264;2023-01-27T13:40:36;93397.81;;;4.12;nan
6345;BME280;3205;42.666;23.264;2023-01-27T13:43:08;93402.66;;;4.02;nan
6345;BME280;3205;42.666;23.264;2023-01-27T13:45:38;93404.25;;;3.86;nan
6345;BME280;3205;42.666;23.264;2023-01-27T13:48:11;93396.22;;;3.91;nan
6345;BME280;3205;42.666;23.264;2023-01-27T13:50:42;93411.53;;;3.72;nan
6345;BME280;3205;42.666;23.264;2023-01-27T13:53:10;93404.75;;;3.71;nan
6345;BME280;3205;42.666;23.264;2023-01-27T13:55:53;93407.56;;;3.66;nan
6345;BME280;3205;42.666;23.264;2023-01-27T13:58:32;93401.88;;;3.64;nan
6345;BME280;3205;42.666;23.264;2023-01-27T14:01:11;93409.28;;;3.62;nan
6345;BME280;3205;42.666;23.264;2023-01-27T14:04:03;93414.69;;;3.49;nan
6345;BME280;3205;42.666;23.264;2023-01-27T14:06:44;93407.31;;;3.51;nan
6345;BME280;3205;42.666;23.264;2023-01-27T14:09:27;93410.50;;;3.56;nan
6345;BME280;3205;42.666;23.264;2023-01-27T14:12:03;93407.31;;;3.51;nan
6345;BME280;3205;42.666;23.264;2023-01-27T14:14:39;93418.84;;;3.41;nan
6345;BME280;3205;42.666;23.264;2023-01-27T14:17:21;93412.13;;;3.32;nan
6345;BME280;3205;42.666;23.264;2023-01-27T14:20:00;93411.06;;;3.24;nan
6345;BME280;3205;42.666;23.264;2023-01-27T14:22:35;93415.66;;;3.27;nan
6345;BME280;3205;42.666;23.264;2023-01-27T14:25:12;93419.50;;;3.13;nan
6345;BME280;3205;42.666;23.264;2023-01-27T14:27:46;93419.34;;;3.09;nan
6345;BME280;3205;42.666;23.264;2023-01-27T14:30:16;93416.25;;;3.41;nan
6345;BME280;3205;42.666;23.264;2023-01-27T14:32:48;93416.88;;;3.30;nan
6345;BME280;3205;42.666;23.264;2023-01-27T14:35:29;93418.59;;;3.09;nan
6345;BME280;3205;42.666;23.264;2023-01-27T14:38:07;93431.81;;;2.95;nan
6345;BME280;3205;42.666;23.264;2023-01-27T14:40:39;93437.34;;;2.86;nan
6345;BME280;3205;42.666;23.264;2023-01-27T14:43:15;93426.59;;;2.79;nan
6345;BME280;3205;42.666;23.264;2023-01-27T14:45:46;93428.59;;;2.73;nan
6345;BME280;3205;42.666;23.264;2023-01-27T14:48:24;93427.69;;;2.78;nan
6345;BME280;3205;42.666;23.264;2023-01-27T14:51:05;93432.44;;;2.76;nan
6345;BME280;3205;42.666;23.264;2023-01-27T14:53:44;93440.25;;;2.67;nan
6345;BME280;3205;42.666;23.264;2023-01-27T14:56:17;93433.50;;;2.75;nan
6345;BME280;3205;42.666;23.264;2023-01-27T14:58:53;93444.88;;;2.79;nan
6345;BME280;3205;42.666;23.264;2023-01-27T15:01:31;93450.38;;;2.69;nan
6345;BME280;3205;42.666;23.264;2023-01-27T15:04:34;93455.31;;;2.70;nan
6345;BME280;3205;42.666;23.264;2023-01-27T15:07:07;93460.06;;;2.60;nan
6345;BME280;3205;42.666;23.264;2023-01-27T15:12:46;93462.50;;;2.65;nan
6345;BME280;3205;42.666;23.264;2023-01-27T15:15:50;93460.06;;;2.60;nan
6345;BME280;3205;42.666;23.264;2023-01-27T15:18:36;93467.25;;;2.63;nan
6345;BME280;3205;42.666;23.264;2023-01-27T15:21:20;93469.09;;;2.79;nan
6345;BME280;3205;42.666;23.264;2023-01-27T15:24:06;93474.47;;;2.83;nan
6345;BME280;3205;42.666;23.264;2023-01-27T15:26:36;93469.41;;;2.78;nan
6345;BME280;3205;42.666;23.264;2023-01-27T15:29:03;93473.72;;;2.74;nan
6345;BME280;3205;42.666;23.264;2023-01-27T15:31:30;93480.63;;;2.70;nan
6345;BME280;3205;42.666;23.264;2023-01-27T15:34:14;93481.41;;;2.79;nan
6345;BME280;3205;42.666;23.264;2023-01-27T15:36:59;93481.72;;;2.77;nan
6345;BME280;3205;42.666;23.264;2023-01-27T15:39:26;93481.84;;;2.72;nan
6345;BME280;3205;42.666;23.264;2023-01-27T15:42:08;93480.34;;;2.80;nan